sensor_id;sensor_type;location;lat;lon;timestamp;pressure;altitude;pressure_sealevel;temperature
37452;BMP280;23314;51.114;6.900;2024-01-30T00:01:01;102317.81;;;9.74
37452;BMP280;23314;51.114;6.900;2024-01-30T00:03:26;102317.03;;;9.73
37452;BMP280;23314;51.114;6.900;2024-01-30T00:05:51;102310.16;;;9.72
37452;BMP280;23314;51.114;6.900;2024-01-30T00:08:17;102315.06;;;9.70
37452;BMP280;23314;51.114;6.900;2024-01-30T00:10:42;102316.19;;;9.69
37452;BMP280;23314;51.114;6.900;2024-01-30T00:13:08;102310.41;;;9.67
37452;BMP280;23314;51.114;6.900;2024-01-30T00:15:34;102310.03;;;9.65
37452;BMP280;23314;51.114;6.900;2024-01-30T00:18:00;102310.38;;;9.63
37452;BMP280;23314;51.114;6.900;2024-01-30T00:20:25;102304.63;;;9.61
37452;BMP280;23314;51.114;6.900;2024-01-30T00:22:50;102308.44;;;9.60
37452;BMP280;23314;51.114;6.900;2024-01-30T00:25:15;102308.00;;;9.58
37452;BMP280;23314;51.114;6.900;2024-01-30T00:27:41;102307.56;;;9.56
37452;BMP280;23314;51.114;6.900;2024-01-30T00:30:06;102309.09;;;9.54
37452;BMP280;23314;51.114;6.900;2024-01-30T00:32:32;102306.75;;;9.52
37452;BMP280;23314;51.114;6.900;2024-01-30T00:34:58;102304.81;;;9.49
37452;BMP280;23314;51.114;6.900;2024-01-30T00:37:23;102295.22;;;9.44
37452;BMP280;23314;51.114;6.900;2024-01-30T00:39:48;102303.13;;;9.41
37452;BMP280;23314;51.114;6.900;2024-01-30T00:42:14;102298.94;;;9.40
37452;BMP280;23314;51.114;6.900;2024-01-30T00:44:40;102302.31;;;9.37
37452;BMP280;23314;51.114;6.900;2024-01-30T00:47:05;102293.91;;;9.35
37452;BMP280;23314;51.114;6.900;2024-01-30T00:49:31;102294.59;;;9.31
37452;BMP280;23314;51.114;6.900;2024-01-30T00:51:56;102298.72;;;9.29
37452;BMP280;23314;51.114;6.900;2024-01-30T00:54:21;102291.88;;;9.28
37452;BMP280;23314;51.114;6.900;2024-01-30T00:56:47;102289.63;;;9.30
37452;BMP280;23314;51.114;6.900;2024-01-30T00:59:12;102289.56;;;9.26
37452;BMP280;23314;51.114;6.900;2024-01-30T01:01:37;102298.28;;;9.23
37452;BMP280;23314;51.114;6.900;2024-01-30T01:04:03;102299.72;;;9.21
37452;BMP280;23314;51.114;6.900;2024-01-30T01:06:28;102295.13;;;9.18
37452;BMP280;23314;51.114;6.900;2024-01-30T01:08:53;102300.38;;;9.14
37452;BMP280;23314;51.114;6.900;2024-01-30T01:11:19;102296.94;;;9.13
37452;BMP280;23314;51.114;6.900;2024-01-30T01:13:44;102299.19;;;9.11
37452;BMP280;23314;51.114;6.900;2024-01-30T01:16:09;102298.06;;;9.12
37452;BMP280;23314;51.114;6.900;2024-01-30T01:18:35;102296.84;;;9.10
37452;BMP280;23314;51.114;6.900;2024-01-30T01:21:00;102295.31;;;9.09
37452;BMP280;23314;51.114;6.900;2024-01-30T01:23:26;102303.28;;;9.09
37452;BMP280;23314;51.114;6.900;2024-01-30T01:25:51;102298.75;;;9.09
37452;BMP280;23314;51.114;6.900;2024-01-30T01:28:17;102297.63;;;9.10
37452;BMP280;23314;51.114;6.900;2024-01-30T01:30:42;102294.63;;;9.12
37452;BMP280;23314;51.114;6.900;2024-01-30T01:33:07;102288.53;;;9.11
37452;BMP280;23314;51.114;6.900;2024-01-30T01:35:34;102296.94;;;9.13
37452;BMP280;23314;51.114;6.900;2024-01-30T01:37:59;102301.50;;;9.13
37452;BMP280;23314;51.114;6.900;2024-01-30T01:40:29;102299.50;;;9.10
37452;BMP280;23314;51.114;6.900;2024-01-30T01:42:55;102291.81;;;9.05
37452;BMP280;23314;51.114;6.900;2024-01-30T01:45:21;102292.25;;;9.07
37452;BMP280;23314;51.114;6.900;2024-01-30T01:47:53;102289.59;;;9.07
37452;BMP280;23314;51.114;6.900;2024-01-30T01:50:20;102292.59;;;9.05
37452;BMP280;23314;51.114;6.900;2024-01-30T01:52:50;102286.84;;;9.03
37452;BMP280;23314;51.114;6.900;2024-01-30T01:55:16;102285.72;;;9.04
37452;BMP280;23314;51.114;6.900;2024-01-30T01:57:44;102279.22;;;9.02
37452;BMP280;23314;51.114;6.900;2024-01-30T02:00:10;102284.88;;;9.00
37452;BMP280;23314;51.114;6.900;2024-01-30T02:02:36;102282.56;;;8.98
37452;BMP280;23314;51.114;6.900;2024-01-30T02:05:02;102281.81;;;8.98
37452;BMP280;23314;51.114;6.900;2024-01-30T02:07:28;102270.81;;;8.99
37452;BMP280;23314;51.114;6.900;2024-01-30T02:09:54;102281.47;;;8.99
37452;BMP280;23314;51.114;6.900;2024-01-30T02:12:20;102279.56;;;9.00
37452;BMP280;23314;51.114;6.900;2024-01-30T02:14:46;102279.22;;;9.02
37452;BMP280;23314;51.114;6.900;2024-01-30T02:17:12;102275.41;;;9.03
37452;BMP280;23314;51.114;6.900;2024-01-30T02:19:39;102265.19;;;9.05
37452;BMP280;23314;51.114;6.900;2024-01-30T02:22:04;102270.53;;;9.05
37452;BMP280;23314;51.114;6.900;2024-01-30T02:24:29;102270.19;;;9.06
37452;BMP280;23314;51.114;6.900;2024-01-30T02:26:55;102272.84;;;9.06
37452;BMP280;23314;51.114;6.900;2024-01-30T02:29:20;102271.72;;;9.07
37452;BMP280;23314;51.114;6.900;2024-01-30T02:31:46;102270.22;;;9.10
37452;BMP280;23314;51.114;6.900;2024-01-30T02:34:11;102268.00;;;9.12
37452;BMP280;23314;51.114;6.900;2024-01-30T02:36:36;102263.09;;;9.14
37452;BMP280;23314;51.114;6.900;2024-01-30T02:39:02;102258.19;;;9.16
37452;BMP280;23314;51.114;6.900;2024-01-30T02:41:27;102257.84;;;9.18
37452;BMP280;23314;51.114;6.900;2024-01-30T02:43:53;102246.13;;;9.22
37452;BMP280;23314;51.114;6.900;2024-01-30T02:46:18;102249.63;;;9.26
37452;BMP280;23314;51.114;6.900;2024-01-30T02:48:43;102250.78;;;9.29
37452;BMP280;23314;51.114;6.900;2024-01-30T02:51:09;102241.69;;;9.30
37452;BMP280;23314;51.114;6.900;2024-01-30T02:53:34;102248.97;;;9.33
37452;BMP280;23314;51.114;6.900;2024-01-30T02:55:59;102239.88;;;9.34
37452;BMP280;23314;51.114;6.900;2024-01-30T02:58:25;102237.97;;;9.35
37452;BMP280;23314;51.114;6.900;2024-01-30T03:00:50;102245.22;;;9.38
37452;BMP280;23314;51.114;6.900;2024-01-30T03:03:15;102243.00;;;9.40
37452;BMP280;23314;51.114;6.900;2024-01-30T03:05:40;102231.22;;;9.41
37452;BMP280;23314;51.114;6.900;2024-01-30T03:08:06;102239.63;;;9.43
37452;BMP280;23314;51.114;6.900;2024-01-30T03:10:31;102231.28;;;9.44
37452;BMP280;23314;51.114;6.900;2024-01-30T03:12:56;102226.31;;;9.43
37452;BMP280;23314;51.114;6.900;2024-01-30T03:15:22;102228.28;;;9.46
37452;BMP280;23314;51.114;6.900;2024-01-30T03:17:48;102223.72;;;9.46
37452;BMP280;23314;51.114;6.900;2024-01-30T03:20:13;102223.34;;;9.48
37452;BMP280;23314;51.114;6.900;2024-01-30T03:22:38;102223.34;;;9.48
37452;BMP280;23314;51.114;6.900;2024-01-30T03:25:04;102227.88;;;9.47
37452;BMP280;23314;51.114;6.900;2024-01-30T03:27:29;102227.88;;;9.47
37452;BMP280;23314;51.114;6.900;2024-01-30T03:29:55;102218.78;;;9.48
37452;BMP280;23314;51.114;6.900;2024-01-30T03:32:20;102223.75;;;9.50
37452;BMP280;23314;51.114;6.900;2024-01-30T03:34:46;102225.28;;;9.51
37452;BMP280;23314;51.114;6.900;2024-01-30T03:37:11;102233.28;;;9.51
37452;BMP280;23314;51.114;6.900;2024-01-30T03:39:36;102220.38;;;9.53
37452;BMP280;23314;51.114;6.900;2024-01-30T03:42:02;102215.84;;;9.54
37452;BMP280;23314;51.114;6.900;2024-01-30T03:44:27;102218.50;;;9.54
37452;BMP280;23314;51.114;6.900;2024-01-30T03:46:52;102217.78;;;9.57
37452;BMP280;23314;51.114;6.900;2024-01-30T03:49:18;102218.53;;;9.57
37452;BMP280;23314;51.114;6.900;2024-01-30T03:51:43;102213.19;;;9.57
37452;BMP280;23314;51.114;6.900;2024-01-30T03:54:09;102212.88;;;9.59
37452;BMP280;23314;51.114;6.900;2024-01-30T03:56:35;102212.88;;;9.59
37452;BMP280;23314;51.114;6.900;2024-01-30T03:59:00;102209.84;;;9.60
37452;BMP280;23314;51.114;6.900;2024-01-30T04:01:28;102209.06;;;9.60
37452;BMP280;23314;51.114;6.900;2024-01-30T04:03:53;102209.06;;;9.60
37452;BMP280;23314;51.114;6.900;2024-01-30T04:06:18;102207.88;;;9.57
37452;BMP280;23314;51.114;6.900;2024-01-30T04:08:43;102215.88;;;9.57
37452;BMP280;23314;51.114;6.900;2024-01-30T04:11:09;102208.25;;;9.56
37452;BMP280;23314;51.114;6.900;2024-01-30T04:13:34;102212.81;;;9.55
37452;BMP280;23314;51.114;6.900;2024-01-30T04:16:00;102207.84;;;9.54
37452;BMP280;23314;51.114;6.900;2024-01-30T04:18:27;102210.94;;;9.56
37452;BMP280;23314;51.114;6.900;2024-01-30T04:20:52;102199.47;;;9.55
37452;BMP280;23314;51.114;6.900;2024-01-30T04:23:17;102199.47;;;9.55
37452;BMP280;23314;51.114;6.900;2024-01-30T04:25:43;102206.72;;;9.55
37452;BMP280;23314;51.114;6.900;2024-01-30T04:28:09;102202.09;;;9.52
37452;BMP280;23314;51.114;6.900;2024-01-30T04:30:37;102200.53;;;9.51
37452;BMP280;23314;51.114;6.900;2024-01-30T04:33:02;102206.56;;;9.47
37452;BMP280;23314;51.114;6.900;2024-01-30T04:35:27;102212.28;;;9.46
37452;BMP280;23314;51.114;6.900;2024-01-30T04:37:53;102211.44;;;9.42
37452;BMP280;23314;51.114;6.900;2024-01-30T04:40:20;102212.16;;;9.39
37452;BMP280;23314;51.114;6.900;2024-01-30T04:42:45;102210.56;;;9.34
37452;BMP280;23314;51.114;6.900;2024-01-30T04:45:11;102209.31;;;9.28
37452;BMP280;23314;51.114;6.900;2024-01-30T04:47:37;102211.94;;;9.24
37452;BMP280;23314;51.114;6.900;2024-01-30T04:50:04;102204.63;;;9.21
37452;BMP280;23314;51.114;6.900;2024-01-30T04:52:30;102205.38;;;9.18
37452;BMP280;23314;51.114;6.900;2024-01-30T04:54:55;102201.50;;;9.15
37452;BMP280;23314;51.114;6.900;2024-01-30T04:57:21;102202.59;;;9.14
37452;BMP280;23314;51.114;6.900;2024-01-30T04:59:46;102193.44;;;9.12
37452;BMP280;23314;51.114;6.900;2024-01-30T05:02:11;102199.13;;;9.10
37452;BMP280;23314;51.114;6.900;2024-01-30T05:04:37;102199.47;;;9.09
37452;BMP280;23314;51.114;6.900;2024-01-30T05:07:02;102195.69;;;9.10
37452;BMP280;23314;51.114;6.900;2024-01-30T05:09:27;102187.66;;;9.06
37452;BMP280;23314;51.114;6.900;2024-01-30T05:11:53;102188.00;;;9.05
37452;BMP280;23314;51.114;6.900;2024-01-30T05:14:19;102183.78;;;9.04
37452;BMP280;23314;51.114;6.900;2024-01-30T05:16:44;102186.06;;;9.02
37452;BMP280;23314;51.114;6.900;2024-01-30T05:19:13;102198.22;;;9.03
37452;BMP280;23314;51.114;6.900;2024-01-30T05:21:39;102194.03;;;9.02
37452;BMP280;23314;51.114;6.900;2024-01-30T05:24:04;102184.16;;;9.02
37452;BMP280;23314;51.114;6.900;2024-01-30T05:26:30;102189.47;;;9.02
37452;BMP280;23314;51.114;6.900;2024-01-30T05:28:55;102191.38;;;9.02
37452;BMP280;23314;51.114;6.900;2024-01-30T05:31:20;102185.63;;;8.99
37452;BMP280;23314;51.114;6.900;2024-01-30T05:33:46;102180.66;;;8.98
37452;BMP280;23314;51.114;6.900;2024-01-30T05:36:12;102176.81;;;8.95
37452;BMP280;23314;51.114;6.900;2024-01-30T05:38:38;102177.94;;;8.94
37452;BMP280;23314;51.114;6.900;2024-01-30T05:41:04;102190.41;;;8.90
37452;BMP280;23314;51.114;6.900;2024-01-30T05:43:29;102189.63;;;8.90
37452;BMP280;23314;51.114;6.900;2024-01-30T05:45:54;102178.94;;;8.86
37452;BMP280;23314;51.114;6.900;2024-01-30T05:48:19;102178.06;;;8.82
37452;BMP280;23314;51.114;6.900;2024-01-30T05:50:45;102172.41;;;8.83
37452;BMP280;23314;51.114;6.900;2024-01-30T05:53:10;102181.84;;;8.81
37452;BMP280;23314;51.114;6.900;2024-01-30T05:55:36;102179.91;;;8.78
37452;BMP280;23314;51.114;6.900;2024-01-30T05:58:01;102180.63;;;8.75
37452;BMP280;23314;51.114;6.900;2024-01-30T06:00:27;102180.63;;;8.75
37452;BMP280;23314;51.114;6.900;2024-01-30T06:02:52;102188.94;;;8.73
37452;BMP280;23314;51.114;6.900;2024-01-30T06:05:17;102189.31;;;8.72
37452;BMP280;23314;51.114;6.900;2024-01-30T06:07:42;102186.75;;;8.79
37452;BMP280;23314;51.114;6.900;2024-01-30T06:10:08;102188.25;;;8.76
37452;BMP280;23314;51.114;6.900;2024-01-30T06:12:34;102180.25;;;8.76
37452;BMP280;23314;51.114;6.900;2024-01-30T06:15:00;102190.91;;;8.76
37452;BMP280;23314;51.114;6.900;2024-01-30T06:17:26;102192.81;;;8.76
37452;BMP280;23314;51.114;6.900;2024-01-30T06:19:51;102184.84;;;8.76
37452;BMP280;23314;51.114;6.900;2024-01-30T06:22:16;102179.56;;;8.79
37452;BMP280;23314;51.114;6.900;2024-01-30T06:24:42;102178.06;;;8.82
37452;BMP280;23314;51.114;6.900;2024-01-30T06:27:10;102177.38;;;8.85
37452;BMP280;23314;51.114;6.900;2024-01-30T06:29:35;102170.22;;;8.89
37452;BMP280;23314;51.114;6.900;2024-01-30T06:32:00;102173.72;;;8.93
37452;BMP280;23314;51.114;6.900;2024-01-30T06:34:26;102168.09;;;8.98
37452;BMP280;23314;51.114;6.900;2024-01-30T06:36:51;102169.28;;;9.01
37452;BMP280;23314;51.114;6.900;2024-01-30T06:39:17;102158.38;;;9.06
37452;BMP280;23314;51.114;6.900;2024-01-30T06:41:42;102159.19;;;9.10
37452;BMP280;23314;51.114;6.900;2024-01-30T06:44:07;102162.66;;;9.14
37452;BMP280;23314;51.114;6.900;2024-01-30T06:46:33;102154.78;;;9.18
37452;BMP280;23314;51.114;6.900;2024-01-30T06:48:59;102154.81;;;9.22
37452;BMP280;23314;51.114;6.900;2024-01-30T06:51:24;102157.56;;;9.25
37452;BMP280;23314;51.114;6.900;2024-01-30T06:53:50;102162.13;;;9.28
37452;BMP280;23314;51.114;6.900;2024-01-30T06:56:15;102159.53;;;9.32
37452;BMP280;23314;51.114;6.900;2024-01-30T06:58:46;102166.09;;;9.38
37452;BMP280;23314;51.114;6.900;2024-01-30T07:01:11;102166.50;;;9.40
37452;BMP280;23314;51.114;6.900;2024-01-30T07:03:36;102165.81;;;9.43
37452;BMP280;23314;51.114;6.900;2024-01-30T07:06:02;102175.41;;;9.48
37452;BMP280;23314;51.114;6.900;2024-01-30T07:08:27;102167.47;;;9.52
37452;BMP280;23314;51.114;6.900;2024-01-30T07:10:52;102175.88;;;9.54
37452;BMP280;23314;51.114;6.900;2024-01-30T07:13:20;102183.13;;;9.57
37452;BMP280;23314;51.114;6.900;2024-01-30T07:15:45;102183.97;;;9.61
37452;BMP280;23314;51.114;6.900;2024-01-30T07:18:11;102180.22;;;9.66
37452;BMP280;23314;51.114;6.900;2024-01-30T07:20:38;102186.72;;;9.68
37452;BMP280;23314;51.114;6.900;2024-01-30T07:23:07;102185.69;;;9.73
37452;BMP280;23314;51.114;6.900;2024-01-30T07:25:33;102184.59;;;9.77
37452;BMP280;23314;51.114;6.900;2024-01-30T07:28:01;102183.88;;;9.81
37452;BMP280;23314;51.114;6.900;2024-01-30T07:30:27;102192.28;;;9.83
37452;BMP280;23314;51.114;6.900;2024-01-30T07:32:52;102190.78;;;9.85
37452;BMP280;23314;51.114;6.900;2024-01-30T07:35:17;102196.53;;;9.87
37452;BMP280;23314;51.114;6.900;2024-01-30T07:37:42;102201.16;;;9.90
37452;BMP280;23314;51.114;6.900;2024-01-30T07:40:08;102193.16;;;9.94
37452;BMP280;23314;51.114;6.900;2024-01-30T07:42:33;102194.38;;;9.97
37452;BMP280;23314;51.114;6.900;2024-01-30T07:45:00;102193.63;;;10.00
37452;BMP280;23314;51.114;6.900;2024-01-30T07:47:25;102202.06;;;10.02
37452;BMP280;23314;51.114;6.900;2024-01-30T07:49:51;102197.13;;;10.04
37452;BMP280;23314;51.114;6.900;2024-01-30T07:52:16;102205.19;;;10.07
37452;BMP280;23314;51.114;6.900;2024-01-30T07:54:42;102204.81;;;10.09
37452;BMP280;23314;51.114;6.900;2024-01-30T07:57:07;102212.09;;;10.12
37452;BMP280;23314;51.114;6.900;2024-01-30T07:59:32;102212.50;;;10.14
37452;BMP280;23314;51.114;6.900;2024-01-30T08:01:58;102210.66;;;10.18
37452;BMP280;23314;51.114;6.900;2024-01-30T08:04:23;102227.44;;;10.22
37452;BMP280;23314;51.114;6.900;2024-01-30T08:06:48;102230.91;;;10.23
37452;BMP280;23314;51.114;6.900;2024-01-30T08:09:14;102229.78;;;10.24
37452;BMP280;23314;51.114;6.900;2024-01-30T08:11:39;102227.53;;;10.26
37452;BMP280;23314;51.114;6.900;2024-01-30T08:14:05;102221.44;;;10.29
37452;BMP280;23314;51.114;6.900;2024-01-30T08:16:30;102214.63;;;10.32
37452;BMP280;23314;51.114;6.900;2024-01-30T08:18:55;102216.94;;;10.33
37452;BMP280;23314;51.114;6.900;2024-01-30T08:21:22;102216.22;;;10.36
37452;BMP280;23314;51.114;6.900;2024-01-30T08:23:48;102217.78;;;10.41
37452;BMP280;23314;51.114;6.900;2024-01-30T08:26:13;102210.63;;;10.45
37452;BMP280;23314;51.114;6.900;2024-01-30T08:28:38;102214.06;;;10.49
37452;BMP280;23314;51.114;6.900;2024-01-30T08:31:03;102213.72;;;10.54
37452;BMP280;23314;51.114;6.900;2024-01-30T08:33:29;102217.63;;;10.60
37452;BMP280;23314;51.114;6.900;2024-01-30T08:35:54;102223.41;;;10.66
37452;BMP280;23314;51.114;6.900;2024-01-30T08:38:19;102222.69;;;10.73
37452;BMP280;23314;51.114;6.900;2024-01-30T08:40:45;102226.97;;;10.78
37452;BMP280;23314;51.114;6.900;2024-01-30T08:43:10;102234.28;;;10.84
37452;BMP280;23314;51.114;6.900;2024-01-30T08:45:35;102235.50;;;10.90
37452;BMP280;23314;51.114;6.900;2024-01-30T08:48:00;102240.88;;;10.98
37452;BMP280;23314;51.114;6.900;2024-01-30T08:50:26;102241.34;;;11.03
37452;BMP280;23314;51.114;6.900;2024-01-30T08:52:52;102245.19;;;11.09
37452;BMP280;23314;51.114;6.900;2024-01-30T08:55:17;102238.78;;;11.14
37452;BMP280;23314;51.114;6.900;2024-01-30T08:57:42;102233.47;;;11.21
37452;BMP280;23314;51.114;6.900;2024-01-30T09:00:08;102242.34;;;11.29
37452;BMP280;23314;51.114;6.900;2024-01-30T09:02:35;102246.22;;;11.39
37452;BMP280;23314;51.114;6.900;2024-01-30T09:05:00;102258.09;;;11.45
37452;BMP280;23314;51.114;6.900;2024-01-30T09:07:26;102259.69;;;11.50
37452;BMP280;23314;51.114;6.900;2024-01-30T09:09:51;102271.19;;;11.57
37452;BMP280;23314;51.114;6.900;2024-01-30T09:12:16;102274.28;;;11.63
37452;BMP280;23314;51.114;6.900;2024-01-30T09:14:42;102259.06;;;11.71
37452;BMP280;23314;51.114;6.900;2024-01-30T09:17:07;102261.03;;;11.78
37452;BMP280;23314;51.114;6.900;2024-01-30T09:19:33;102270.22;;;11.84
37452;BMP280;23314;51.114;6.900;2024-01-30T09:21:58;102264.53;;;11.93
37452;BMP280;23314;51.114;6.900;2024-01-30T09:24:24;102275.28;;;12.00
37452;BMP280;23314;51.114;6.900;2024-01-30T09:26:49;102276.88;;;12.08
37452;BMP280;23314;51.114;6.900;2024-01-30T09:29:14;102291.03;;;12.16
37452;BMP280;23314;51.114;6.900;2024-01-30T09:31:43;102292.22;;;12.22
37452;BMP280;23314;51.114;6.900;2024-01-30T09:34:08;102301.03;;;12.26
37452;BMP280;23314;51.114;6.900;2024-01-30T09:36:34;102310.22;;;12.29
37452;BMP280;23314;51.114;6.900;2024-01-30T09:38:59;102308.34;;;12.36
37452;BMP280;23314;51.114;6.900;2024-01-30T09:41:27;102306.50;;;12.48
37452;BMP280;23314;51.114;6.900;2024-01-30T09:43:54;102303.06;;;12.58
37452;BMP280;23314;51.114;6.900;2024-01-30T09:46:21;102300.81;;;12.67
37452;BMP280;23314;51.114;6.900;2024-01-30T09:48:46;102309.66;;;12.75
37452;BMP280;23314;51.114;6.900;2024-01-30T09:51:14;102309.25;;;12.84
37452;BMP280;23314;51.114;6.900;2024-01-30T09:53:40;102310.44;;;12.94
37452;BMP280;23314;51.114;6.900;2024-01-30T09:56:07;102308.94;;;13.03
37452;BMP280;23314;51.114;6.900;2024-01-30T09:58:33;102311.22;;;13.12
37452;BMP280;23314;51.114;6.900;2024-01-30T10:00:58;102312.38;;;13.18
37452;BMP280;23314;51.114;6.900;2024-01-30T10:03:23;102315.84;;;13.23
37452;BMP280;23314;51.114;6.900;2024-01-30T10:05:51;102302.06;;;13.28
37452;BMP280;23314;51.114;6.900;2024-01-30T10:08:17;102313.53;;;13.39
37452;BMP280;23314;51.114;6.900;2024-01-30T10:10:49;102320.47;;;13.51
37452;BMP280;23314;51.114;6.900;2024-01-30T10:13:18;102317.38;;;13.60
37452;BMP280;23314;51.114;6.900;2024-01-30T10:15:44;102320.44;;;13.65
37452;BMP280;23314;51.114;6.900;2024-01-30T10:18:10;102323.50;;;13.67
37452;BMP280;23314;51.114;6.900;2024-01-30T10:20:36;102324.25;;;13.71
37452;BMP280;23314;51.114;6.900;2024-01-30T10:23:02;102323.50;;;13.75
37452;BMP280;23314;51.114;6.900;2024-01-30T10:25:27;102319.28;;;13.74
37452;BMP280;23314;51.114;6.900;2024-01-30T10:27:53;102330.41;;;13.76
37452;BMP280;23314;51.114;6.900;2024-01-30T10:30:25;102333.06;;;13.79
37452;BMP280;23314;51.114;6.900;2024-01-30T10:32:51;102332.28;;;13.82
37452;BMP280;23314;51.114;6.900;2024-01-30T10:35:17;102333.06;;;13.90
37452;BMP280;23314;51.114;6.900;2024-01-30T10:37:47;102338.38;;;13.97
37452;BMP280;23314;51.114;6.900;2024-01-30T10:40:14;102333.44;;;14.03
37452;BMP280;23314;51.114;6.900;2024-01-30T10:42:42;102339.53;;;14.07
37452;BMP280;23314;51.114;6.900;2024-01-30T10:45:10;102342.59;;;14.09
37452;BMP280;23314;51.114;6.900;2024-01-30T10:47:40;102328.78;;;14.11
37452;BMP280;23314;51.114;6.900;2024-01-30T10:50:07;102330.69;;;14.10
37452;BMP280;23314;51.114;6.900;2024-01-30T10:52:33;102324.97;;;14.08
37452;BMP280;23314;51.114;6.900;2024-01-30T10:54:59;102326.09;;;14.11
37452;BMP280;23314;51.114;6.900;2024-01-30T10:57:27;102323.81;;;14.09
37452;BMP280;23314;51.114;6.900;2024-01-30T10:59:56;102323.75;;;14.20
37452;BMP280;23314;51.114;6.900;2024-01-30T11:02:23;102328.69;;;14.36
37452;BMP280;23314;51.114;6.900;2024-01-30T11:04:56;102333.63;;;14.52
37452;BMP280;23314;51.114;6.900;2024-01-30T11:07:28;102342.75;;;14.69
37452;BMP280;23314;51.114;6.900;2024-01-30T11:10:02;102338.88;;;14.77
37452;BMP280;23314;51.114;6.900;2024-01-30T11:12:28;102336.91;;;14.78
37452;BMP280;23314;51.114;6.900;2024-01-30T11:17:52;102342.66;;;14.83
37452;BMP280;23314;51.114;6.900;2024-01-30T11:22:46;102343.81;;;14.86
37452;BMP280;23314;51.114;6.900;2024-01-30T11:25:13;102338.75;;;14.92
37452;BMP280;23314;51.114;6.900;2024-01-30T11:27:39;102341.44;;;14.95
37452;BMP280;23314;51.114;6.900;2024-01-30T11:30:05;102347.19;;;15.01
37452;BMP280;23314;51.114;6.900;2024-01-30T11:32:31;102343.66;;;15.08
37452;BMP280;23314;51.114;6.900;2024-01-30T11:34:56;102355.16;;;15.08
37452;BMP280;23314;51.114;6.900;2024-01-30T11:37:24;102353.22;;;15.12
37452;BMP280;23314;51.114;6.900;2024-01-30T11:39:51;102353.91;;;15.20
37452;BMP280;23314;51.114;6.900;2024-01-30T11:42:16;102351.59;;;15.26
37452;BMP280;23314;51.114;6.900;2024-01-30T11:44:46;102348.88;;;15.29
37452;BMP280;23314;51.114;6.900;2024-01-30T11:47:12;102353.44;;;15.32
37452;BMP280;23314;51.114;6.900;2024-01-30T11:49:37;102362.28;;;15.36
37452;BMP280;23314;51.114;6.900;2024-01-30T11:52:03;102358.00;;;15.39
37452;BMP280;23314;51.114;6.900;2024-01-30T11:54:29;102352.25;;;15.37
37452;BMP280;23314;51.114;6.900;2024-01-30T11:56:54;102348.06;;;15.36
37452;BMP280;23314;51.114;6.900;2024-01-30T11:59:19;102355.00;;;15.33
37452;BMP280;23314;51.114;6.900;2024-01-30T12:01:45;102354.94;;;15.37
37452;BMP280;23314;51.114;6.900;2024-01-30T12:04:11;102360.75;;;15.35
37452;BMP280;23314;51.114;6.900;2024-01-30T12:06:36;102359.97;;;15.31
37452;BMP280;23314;51.114;6.900;2024-01-30T12:09:02;102361.53;;;15.29
37452;BMP280;23314;51.114;6.900;2024-01-30T12:11:43;102365.47;;;15.17
37452;BMP280;23314;51.114;6.900;2024-01-30T12:14:09;102365.91;;;15.12
37452;BMP280;23314;51.114;6.900;2024-01-30T12:16:35;102361.31;;;15.09
37452;BMP280;23314;51.114;6.900;2024-01-30T12:19:00;102375.53;;;15.06
37452;BMP280;23314;51.114;6.900;2024-01-30T12:21:27;102362.88;;;15.02
37452;BMP280;23314;51.114;6.900;2024-01-30T12:23:52;102361.00;;;14.99
37452;BMP280;23314;51.114;6.900;2024-01-30T12:26:18;102362.94;;;14.95
37452;BMP280;23314;51.114;6.900;2024-01-30T12:28:50;102363.00;;;14.88
37452;BMP280;23314;51.114;6.900;2024-01-30T12:31:15;102360.28;;;14.84
37452;BMP280;23314;51.114;6.900;2024-01-30T12:33:41;102355.34;;;14.83
37452;BMP280;23314;51.114;6.900;2024-01-30T12:36:06;102360.34;;;14.81
37452;BMP280;23314;51.114;6.900;2024-01-30T12:38:32;102358.84;;;14.76
37452;BMP280;23314;51.114;6.900;2024-01-30T12:40:58;102364.97;;;14.73
37452;BMP280;23314;51.114;6.900;2024-01-30T12:43:26;102356.19;;;14.69
37452;BMP280;23314;51.114;6.900;2024-01-30T12:45:54;102367.34;;;14.64
37452;BMP280;23314;51.114;6.900;2024-01-30T12:48:20;102363.88;;;14.60
37452;BMP280;23314;51.114;6.900;2024-01-30T12:50:45;102362.75;;;14.57
37452;BMP280;23314;51.114;6.900;2024-01-30T12:53:10;102363.50;;;14.58
37452;BMP280;23314;51.114;6.900;2024-01-30T12:55:38;102361.63;;;14.58
37452;BMP280;23314;51.114;6.900;2024-01-30T12:58:03;102345.06;;;14.60
37452;BMP280;23314;51.114;6.900;2024-01-30T13:00:29;102337.78;;;14.60
37452;BMP280;23314;51.114;6.900;2024-01-30T13:02:54;102342.38;;;14.60
37452;BMP280;23314;51.114;6.900;2024-01-30T13:05:20;102337.03;;;14.63
37452;BMP280;23314;51.114;6.900;2024-01-30T13:07:45;102342.81;;;14.58
37452;BMP280;23314;51.114;6.900;2024-01-30T13:10:11;102345.06;;;14.60
37452;BMP280;23314;51.114;6.900;2024-01-30T13:12:36;102342.00;;;14.61
37452;BMP280;23314;51.114;6.900;2024-01-30T13:15:04;102351.97;;;14.61
37452;BMP280;23314;51.114;6.900;2024-01-30T13:17:31;102354.66;;;14.61
37452;BMP280;23314;51.114;6.900;2024-01-30T13:19:56;102359.66;;;14.62
37452;BMP280;23314;51.114;6.900;2024-01-30T13:22:21;102362.72;;;14.61
37452;BMP280;23314;51.114;6.900;2024-01-30T13:24:47;102366.97;;;14.58
37452;BMP280;23314;51.114;6.900;2024-01-30T13:27:13;102381.94;;;14.56
37452;BMP280;23314;51.114;6.900;2024-01-30T13:29:38;102372.00;;;14.52
37452;BMP280;23314;51.114;6.900;2024-01-30T13:32:04;102379.69;;;14.50
37452;BMP280;23314;51.114;6.900;2024-01-30T13:34:29;102365.06;;;14.48
37452;BMP280;23314;51.114;6.900;2024-01-30T13:36:55;102367.41;;;14.46
37452;BMP280;23314;51.114;6.900;2024-01-30T13:39:20;102369.34;;;14.45
37452;BMP280;23314;51.114;6.900;2024-01-30T13:41:46;102370.47;;;14.44
37452;BMP280;23314;51.114;6.900;2024-01-30T13:44:11;102369.34;;;14.42
37452;BMP280;23314;51.114;6.900;2024-01-30T13:46:36;102366.66;;;14.42
37452;BMP280;23314;51.114;6.900;2024-01-30T13:49:03;102360.50;;;14.41
37452;BMP280;23314;51.114;6.900;2024-01-30T13:51:28;102361.69;;;14.40
37452;BMP280;23314;51.114;6.900;2024-01-30T13:53:54;102359.34;;;14.42
37452;BMP280;23314;51.114;6.900;2024-01-30T13:56:22;102370.84;;;14.43
37452;BMP280;23314;51.114;6.900;2024-01-30T13:58:50;102366.25;;;14.43
37452;BMP280;23314;51.114;6.900;2024-01-30T14:01:16;102368.94;;;14.47